sensor_id;sensor_type;location;lat;lon;timestamp;P1;durP1;ratioP1;P2;durP2;ratioP2
39890;SDS011;25564;53.312;9.790;2022-11-20T00:01:27;15.60;;;7.77;;
39890;SDS011;25564;53.312;9.790;2022-11-20T00:03:59;17.47;;;8.93;;
39890;SDS011;25564;53.312;9.790;2022-11-20T00:06:31;21.33;;;8.87;;
39890;SDS011;25564;53.312;9.790;2022-11-20T00:09:03;20.40;;;8.87;;
39890;SDS011;25564;53.312;9.790;2022-11-20T00:11:36;15.03;;;7.20;;
39890;SDS011;25564;53.312;9.790;2022-11-20T00:14:08;16.93;;;7.73;;
39890;SDS011;25564;53.312;9.790;2022-11-20T00:16:40;16.93;;;8.50;;
39890;SDS011;25564;53.312;9.790;2022-11-20T00:19:11;17.27;;;8.80;;
39890;SDS011;25564;53.312;9.790;2022-11-20T00:21:43;14.10;;;7.87;;
39890;SDS011;25564;53.312;9.790;2022-11-20T00:24:14;16.97;;;8.23;;
39890;SDS011;25564;53.312;9.790;2022-11-20T00:26:45;12.33;;;6.90;;
39890;SDS011;25564;53.312;9.790;2022-11-20T00:29:17;14.13;;;8.20;;
39890;SDS011;25564;53.312;9.790;2022-11-20T00:31:48;13.27;;;7.80;;
39890;SDS011;25564;53.312;9.790;2022-11-20T00:34:20;11.93;;;6.73;;
39890;SDS011;25564;53.312;9.790;2022-11-20T00:36:51;19.07;;;8.23;;
39890;SDS011;25564;53.312;9.790;2022-11-20T00:39:22;15.00;;;6.70;;
39890;SDS011;25564;53.312;9.790;2022-11-20T00:41:54;15.80;;;7.40;;
39890;SDS011;25564;53.312;9.790;2022-11-20T00:44:25;14.80;;;7.17;;
39890;SDS011;25564;53.312;9.790;2022-11-20T00:46:56;12.97;;;6.80;;
39890;SDS011;25564;53.312;9.790;2022-11-20T00:49:28;11.63;;;6.67;;
39890;SDS011;25564;53.312;9.790;2022-11-20T00:51:59;15.60;;;7.00;;
39890;SDS011;25564;53.312;9.790;2022-11-20T00:54:30;14.13;;;7.77;;
39890;SDS011;25564;53.312;9.790;2022-11-20T00:57:02;13.20;;;6.27;;
39890;SDS011;25564;53.312;9.790;2022-11-20T00:59:33;11.17;;;5.67;;
39890;SDS011;25564;53.312;9.790;2022-11-20T01:02:04;11.30;;;6.37;;
39890;SDS011;25564;53.312;9.790;2022-11-20T01:04:36;11.73;;;5.83;;
39890;SDS011;25564;53.312;9.790;2022-11-20T01:07:07;13.70;;;5.73;;
39890;SDS011;25564;53.312;9.790;2022-11-20T01:09:38;10.10;;;6.23;;
39890;SDS011;25564;53.312;9.790;2022-11-20T01:12:10;10.50;;;6.40;;
39890;SDS011;25564;53.312;9.790;2022-11-20T01:14:41;11.17;;;6.37;;
39890;SDS011;25564;53.312;9.790;2022-11-20T01:17:12;9.87;;;5.30;;
39890;SDS011;25564;53.312;9.790;2022-11-20T01:19:48;13.67;;;5.80;;
39890;SDS011;25564;53.312;9.790;2022-11-20T01:22:21;10.77;;;6.03;;
39890;SDS011;25564;53.312;9.790;2022-11-20T01:24:52;10.57;;;6.30;;
39890;SDS011;25564;53.312;9.790;2022-11-20T01:27:23;12.77;;;5.57;;
39890;SDS011;25564;53.312;9.790;2022-11-20T01:29:55;10.73;;;6.00;;
39890;SDS011;25564;53.312;9.790;2022-11-20T01:32:31;14.38;;;6.55;;
39890;SDS011;25564;53.312;9.790;2022-11-20T01:35:02;8.13;;;5.20;;
39890;SDS011;25564;53.312;9.790;2022-11-20T01:37:34;7.47;;;5.00;;
39890;SDS011;25564;53.312;9.790;2022-11-20T01:40:05;11.77;;;6.07;;
39890;SDS011;25564;53.312;9.790;2022-11-20T01:42:37;11.07;;;6.07;;
39890;SDS011;25564;53.312;9.790;2022-11-20T01:48:32;11.57;;;5.97;;
39890;SDS011;25564;53.312;9.790;2022-11-20T01:54:06;9.60;;;5.53;;
39890;SDS011;25564;53.312;9.790;2022-11-20T01:56:44;10.70;;;5.67;;
39890;SDS011;25564;53.312;9.790;2022-11-20T01:59:17;9.27;;;5.60;;
39890;SDS011;25564;53.312;9.790;2022-11-20T02:01:52;12.63;;;6.37;;
39890;SDS011;25564;53.312;9.790;2022-11-20T02:04:24;11.67;;;5.73;;
39890;SDS011;25564;53.312;9.790;2022-11-20T02:06:57;10.40;;;5.90;;
39890;SDS011;25564;53.312;9.790;2022-11-20T02:09:31;8.60;;;5.33;;
39890;SDS011;25564;53.312;9.790;2022-11-20T02:12:02;9.20;;;4.57;;
39890;SDS011;25564;53.312;9.790;2022-11-20T02:14:34;11.07;;;5.67;;
39890;SDS011;25564;53.312;9.790;2022-11-20T02:17:05;8.57;;;5.40;;
39890;SDS011;25564;53.312;9.790;2022-11-20T02:19:37;9.13;;;5.50;;
39890;SDS011;25564;53.312;9.790;2022-11-20T02:22:14;9.97;;;5.10;;
39890;SDS011;25564;53.312;9.790;2022-11-20T02:24:53;10.77;;;5.33;;
39890;SDS011;25564;53.312;9.790;2022-11-20T02:27:24;8.67;;;5.10;;
39890;SDS011;25564;53.312;9.790;2022-11-20T02:29:58;8.33;;;4.90;;
39890;SDS011;25564;53.312;9.790;2022-11-20T02:32:36;8.77;;;5.13;;
39890;SDS011;25564;53.312;9.790;2022-11-20T02:35:08;10.17;;;4.90;;
39890;SDS011;25564;53.312;9.790;2022-11-20T02:37:50;9.67;;;4.67;;
39890;SDS011;25564;53.312;9.790;2022-11-20T02:40:25;9.25;;;5.35;;
39890;SDS011;25564;53.312;9.790;2022-11-20T02:42:57;11.13;;;5.00;;
39890;SDS011;25564;53.312;9.790;2022-11-20T02:45:28;9.50;;;5.43;;
39890;SDS011;25564;53.312;9.790;2022-11-20T02:47:59;11.07;;;5.33;;
39890;SDS011;25564;53.312;9.790;2022-11-20T02:50:31;10.33;;;5.00;;
39890;SDS011;25564;53.312;9.790;2022-11-20T02:53:02;10.87;;;5.37;;
39890;SDS011;25564;53.312;9.790;2022-11-20T02:55:33;10.60;;;5.67;;
39890;SDS011;25564;53.312;9.790;2022-11-20T02:58:05;8.67;;;4.70;;
39890;SDS011;25564;53.312;9.790;2022-11-20T03:00:36;8.73;;;4.83;;
39890;SDS011;25564;53.312;9.790;2022-11-20T03:03:07;8.93;;;4.87;;
39890;SDS011;25564;53.312;9.790;2022-11-20T03:05:39;9.67;;;5.30;;
39890;SDS011;25564;53.312;9.790;2022-11-20T03:08:10;8.80;;;5.10;;
39890;SDS011;25564;53.312;9.790;2022-11-20T03:10:41;10.13;;;5.40;;
39890;SDS011;25564;53.312;9.790;2022-11-20T03:13:13;8.20;;;4.73;;
39890;SDS011;25564;53.312;9.790;2022-11-20T03:15:44;11.93;;;5.47;;
39890;SDS011;25564;53.312;9.790;2022-11-20T03:18:15;9.57;;;5.47;;
39890;SDS011;25564;53.312;9.790;2022-11-20T03:20:47;10.10;;;5.17;;
39890;SDS011;25564;53.312;9.790;2022-11-20T03:23:18;12.07;;;5.67;;
39890;SDS011;25564;53.312;9.790;2022-11-20T03:25:49;9.77;;;5.30;;
39890;SDS011;25564;53.312;9.790;2022-11-20T03:28:21;11.27;;;5.27;;
39890;SDS011;25564;53.312;9.790;2022-11-20T03:30:52;8.37;;;5.00;;
39890;SDS011;25564;53.312;9.790;2022-11-20T03:33:23;8.63;;;5.10;;
39890;SDS011;25564;53.312;9.790;2022-11-20T03:35:55;8.87;;;5.20;;
39890;SDS011;25564;53.312;9.790;2022-11-20T03:38:32;8.60;;;5.40;;
39890;SDS011;25564;53.312;9.790;2022-11-20T03:41:14;8.97;;;5.13;;
39890;SDS011;25564;53.312;9.790;2022-11-20T03:43:51;10.27;;;4.90;;
39890;SDS011;25564;53.312;9.790;2022-11-20T03:46:25;8.63;;;5.17;;
39890;SDS011;25564;53.312;9.790;2022-11-20T03:48:57;9.33;;;4.60;;
39890;SDS011;25564;53.312;9.790;2022-11-20T03:51:32;11.90;;;5.43;;
39890;SDS011;25564;53.312;9.790;2022-11-20T03:54:06;9.73;;;5.30;;
39890;SDS011;25564;53.312;9.790;2022-11-20T03:56:38;7.03;;;4.73;;
39890;SDS011;25564;53.312;9.790;2022-11-20T03:59:10;15.03;;;5.80;;
39890;SDS011;25564;53.312;9.790;2022-11-20T04:01:42;11.37;;;5.27;;
39890;SDS011;25564;53.312;9.790;2022-11-20T04:04:19;8.60;;;5.20;;
39890;SDS011;25564;53.312;9.790;2022-11-20T04:06:50;10.63;;;5.40;;
39890;SDS011;25564;53.312;9.790;2022-11-20T04:09:22;10.57;;;5.27;;
39890;SDS011;25564;53.312;9.790;2022-11-20T04:11:54;10.43;;;5.57;;
39890;SDS011;25564;53.312;9.790;2022-11-20T04:14:25;9.23;;;5.30;;
39890;SDS011;25564;53.312;9.790;2022-11-20T04:16:56;10.03;;;5.97;;
39890;SDS011;25564;53.312;9.790;2022-11-20T04:19:28;9.60;;;5.20;;
39890;SDS011;25564;53.312;9.790;2022-11-20T04:21:59;10.70;;;6.33;;
39890;SDS011;25564;53.312;9.790;2022-11-20T04:24:30;12.67;;;5.67;;
39890;SDS011;25564;53.312;9.790;2022-11-20T04:27:02;10.20;;;5.47;;
39890;SDS011;25564;53.312;9.790;2022-11-20T04:29:33;10.50;;;6.23;;
39890;SDS011;25564;53.312;9.790;2022-11-20T04:32:04;10.57;;;5.47;;
39890;SDS011;25564;53.312;9.790;2022-11-20T04:34:35;11.90;;;6.40;;
39890;SDS011;25564;53.312;9.790;2022-11-20T04:37:07;8.93;;;5.20;;
39890;SDS011;25564;53.312;9.790;2022-11-20T04:39:38;11.80;;;6.93;;
39890;SDS011;25564;53.312;9.790;2022-11-20T04:42:10;10.13;;;5.77;;
39890;SDS011;25564;53.312;9.790;2022-11-20T04:44:59;11.87;;;6.23;;
39890;SDS011;25564;53.312;9.790;2022-11-20T04:47:30;12.93;;;6.17;;
39890;SDS011;25564;53.312;9.790;2022-11-20T04:50:02;13.93;;;6.80;;
39890;SDS011;25564;53.312;9.790;2022-11-20T04:52:33;16.97;;;8.70;;
39890;SDS011;25564;53.312;9.790;2022-11-20T04:55:05;21.10;;;10.07;;
39890;SDS011;25564;53.312;9.790;2022-11-20T04:57:37;19.43;;;10.17;;
39890;SDS011;25564;53.312;9.790;2022-11-20T05:00:08;19.33;;;10.47;;
39890;SDS011;25564;53.312;9.790;2022-11-20T05:02:40;14.77;;;8.63;;
39890;SDS011;25564;53.312;9.790;2022-11-20T05:05:11;15.47;;;7.77;;
39890;SDS011;25564;53.312;9.790;2022-11-20T05:07:43;11.97;;;7.20;;
39890;SDS011;25564;53.312;9.790;2022-11-20T05:10:14;13.43;;;7.03;;
39890;SDS011;25564;53.312;9.790;2022-11-20T05:12:46;12.47;;;6.47;;
39890;SDS011;25564;53.312;9.790;2022-11-20T05:15:17;19.70;;;7.97;;
39890;SDS011;25564;53.312;9.790;2022-11-20T05:17:48;12.33;;;6.93;;
39890;SDS011;25564;53.312;9.790;2022-11-20T05:20:21;15.67;;;7.63;;
39890;SDS011;25564;53.312;9.790;2022-11-20T05:22:52;13.90;;;7.40;;
39890;SDS011;25564;53.312;9.790;2022-11-20T05:25:27;15.40;;;7.93;;
39890;SDS011;25564;53.312;9.790;2022-11-20T05:27:59;13.90;;;7.60;;
39890;SDS011;25564;53.312;9.790;2022-11-20T05:30:30;16.50;;;8.60;;
39890;SDS011;25564;53.312;9.790;2022-11-20T05:33:01;15.90;;;8.50;;
39890;SDS011;25564;53.312;9.790;2022-11-20T05:35:32;17.20;;;9.60;;
39890;SDS011;25564;53.312;9.790;2022-11-20T05:38:04;37.93;;;17.23;;
39890;SDS011;25564;53.312;9.790;2022-11-20T05:40:35;22.03;;;10.13;;
39890;SDS011;25564;53.312;9.790;2022-11-20T05:43:06;27.67;;;13.60;;
39890;SDS011;25564;53.312;9.790;2022-11-20T05:45:38;27.57;;;13.57;;
39890;SDS011;25564;53.312;9.790;2022-11-20T05:48:09;23.87;;;12.87;;
39890;SDS011;25564;53.312;9.790;2022-11-20T05:50:40;31.83;;;15.33;;
39890;SDS011;25564;53.312;9.790;2022-11-20T05:53:11;32.40;;;15.83;;
39890;SDS011;25564;53.312;9.790;2022-11-20T05:55:43;18.47;;;10.40;;
39890;SDS011;25564;53.312;9.790;2022-11-20T05:58:14;39.47;;;18.07;;
39890;SDS011;25564;53.312;9.790;2022-11-20T06:00:45;35.77;;;16.43;;
39890;SDS011;25564;53.312;9.790;2022-11-20T06:03:17;21.60;;;11.80;;
39890;SDS011;25564;53.312;9.790;2022-11-20T06:05:48;23.87;;;12.80;;
39890;SDS011;25564;53.312;9.790;2022-11-20T06:08:19;23.40;;;11.50;;
39890;SDS011;25564;53.312;9.790;2022-11-20T06:10:50;20.40;;;10.57;;
39890;SDS011;25564;53.312;9.790;2022-11-20T06:13:22;22.00;;;11.37;;
39890;SDS011;25564;53.312;9.790;2022-11-20T06:15:53;21.77;;;10.33;;
39890;SDS011;25564;53.312;9.790;2022-11-20T06:18:26;18.67;;;9.67;;
39890;SDS011;25564;53.312;9.790;2022-11-20T06:23:36;20.00;;;10.57;;
39890;SDS011;25564;53.312;9.790;2022-11-20T06:26:15;20.63;;;9.77;;
39890;SDS011;25564;53.312;9.790;2022-11-20T06:28:49;20.87;;;10.43;;
39890;SDS011;25564;53.312;9.790;2022-11-20T06:31:21;19.53;;;10.67;;
39890;SDS011;25564;53.312;9.790;2022-11-20T06:33:54;20.93;;;11.37;;
39890;SDS011;25564;53.312;9.790;2022-11-20T06:36:25;21.37;;;10.90;;
39890;SDS011;25564;53.312;9.790;2022-11-20T06:38:57;29.40;;;12.90;;
39890;SDS011;25564;53.312;9.790;2022-11-20T06:41:28;22.87;;;12.40;;
39890;SDS011;25564;53.312;9.790;2022-11-20T06:43:59;23.77;;;12.20;;
39890;SDS011;25564;53.312;9.790;2022-11-20T06:46:31;20.73;;;11.07;;
39890;SDS011;25564;53.312;9.790;2022-11-20T06:49:02;18.27;;;10.67;;
39890;SDS011;25564;53.312;9.790;2022-11-20T06:51:34;19.37;;;10.87;;
39890;SDS011;25564;53.312;9.790;2022-11-20T06:54:07;18.47;;;10.73;;
39890;SDS011;25564;53.312;9.790;2022-11-20T06:56:38;25.67;;;11.47;;
39890;SDS011;25564;53.312;9.790;2022-11-20T06:59:10;20.87;;;11.23;;
39890;SDS011;25564;53.312;9.790;2022-11-20T07:01:41;16.70;;;10.00;;
39890;SDS011;25564;53.312;9.790;2022-11-20T07:04:13;21.67;;;11.63;;
39890;SDS011;25564;53.312;9.790;2022-11-20T07:06:44;20.83;;;11.20;;
39890;SDS011;25564;53.312;9.790;2022-11-20T07:09:17;19.37;;;9.93;;
39890;SDS011;25564;53.312;9.790;2022-11-20T07:11:48;20.00;;;11.57;;
39890;SDS011;25564;53.312;9.790;2022-11-20T07:14:19;22.10;;;11.37;;
39890;SDS011;25564;53.312;9.790;2022-11-20T07:16:51;18.00;;;10.33;;
39890;SDS011;25564;53.312;9.790;2022-11-20T07:19:22;53.70;;;22.67;;
39890;SDS011;25564;53.312;9.790;2022-11-20T07:21:54;48.70;;;22.50;;
39890;SDS011;25564;53.312;9.790;2022-11-20T07:24:25;50.10;;;23.07;;
39890;SDS011;25564;53.312;9.790;2022-11-20T07:26:56;36.07;;;17.97;;
39890;SDS011;25564;53.312;9.790;2022-11-20T07:29:27;33.20;;;15.37;;
39890;SDS011;25564;53.312;9.790;2022-11-20T07:31:59;25.60;;;13.60;;
39890;SDS011;25564;53.312;9.790;2022-11-20T07:34:30;25.83;;;13.87;;
39890;SDS011;25564;53.312;9.790;2022-11-20T07:37:01;26.90;;;13.10;;
39890;SDS011;25564;53.312;9.790;2022-11-20T07:39:40;24.83;;;14.07;;
39890;SDS011;25564;53.312;9.790;2022-11-20T07:42:11;25.10;;;13.17;;
39890;SDS011;25564;53.312;9.790;2022-11-20T07:44:43;23.13;;;12.10;;
39890;SDS011;25564;53.312;9.790;2022-11-20T07:47:14;24.77;;;12.43;;
39890;SDS011;25564;53.312;9.790;2022-11-20T07:49:45;31.33;;;14.20;;
39890;SDS011;25564;53.312;9.790;2022-11-20T07:52:17;27.33;;;13.30;;
39890;SDS011;25564;53.312;9.790;2022-11-20T07:54:48;28.23;;;12.93;;
39890;SDS011;25564;53.312;9.790;2022-11-20T07:57:19;27.70;;;12.47;;
39890;SDS011;25564;53.312;9.790;2022-11-20T07:59:58;22.63;;;12.37;;
39890;SDS011;25564;53.312;9.790;2022-11-20T08:02:29;22.70;;;12.33;;
39890;SDS011;25564;53.312;9.790;2022-11-20T08:05:01;22.73;;;12.40;;
39890;SDS011;25564;53.312;9.790;2022-11-20T08:07:39;22.33;;;11.93;;
39890;SDS011;25564;53.312;9.790;2022-11-20T08:10:12;25.20;;;13.30;;
39890;SDS011;25564;53.312;9.790;2022-11-20T08:12:49;23.77;;;13.30;;
39890;SDS011;25564;53.312;9.790;2022-11-20T08:15:40;24.20;;;12.50;;
39890;SDS011;25564;53.312;9.790;2022-11-20T08:18:12;26.10;;;12.50;;
39890;SDS011;25564;53.312;9.790;2022-11-20T08:21:01;24.93;;;13.67;;
39890;SDS011;25564;53.312;9.790;2022-11-20T08:23:34;25.17;;;12.37;;
39890;SDS011;25564;53.312;9.790;2022-11-20T08:26:06;26.97;;;12.23;;
39890;SDS011;25564;53.312;9.790;2022-11-20T08:28:37;22.03;;;12.33;;
39890;SDS011;25564;53.312;9.790;2022-11-20T08:31:08;22.23;;;12.03;;
39890;SDS011;25564;53.312;9.790;2022-11-20T08:33:40;24.03;;;13.73;;
39890;SDS011;25564;53.312;9.790;2022-11-20T08:36:12;24.17;;;12.70;;
39890;SDS011;25564;53.312;9.790;2022-11-20T08:38:47;27.87;;;13.73;;
39890;SDS011;25564;53.312;9.790;2022-11-20T08:41:19;25.15;;;12.38;;
39890;SDS011;25564;53.312;9.790;2022-11-20T08:44:04;22.20;;;12.45;;
39890;SDS011;25564;53.312;9.790;2022-11-20T08:46:38;22.40;;;12.07;;
39890;SDS011;25564;53.312;9.790;2022-11-20T08:49:12;22.20;;;10.67;;
39890;SDS011;25564;53.312;9.790;2022-11-20T08:51:46;20.70;;;11.40;;
39890;SDS011;25564;53.312;9.790;2022-11-20T08:54:19;22.23;;;12.10;;
39890;SDS011;25564;53.312;9.790;2022-11-20T08:56:52;22.00;;;12.53;;
39890;SDS011;25564;53.312;9.790;2022-11-20T08:59:24;21.80;;;10.53;;
39890;SDS011;25564;53.312;9.790;2022-11-20T09:02:15;19.13;;;10.97;;
39890;SDS011;25564;53.312;9.790;2022-11-20T09:04:46;21.33;;;11.33;;
39890;SDS011;25564;53.312;9.790;2022-11-20T09:07:18;19.57;;;11.57;;
39890;SDS011;25564;53.312;9.790;2022-11-20T09:09:50;20.57;;;10.60;;
39890;SDS011;25564;53.312;9.790;2022-11-20T09:12:41;18.27;;;9.83;;
39890;SDS011;25564;53.312;9.790;2022-11-20T09:15:12;22.37;;;10.70;;
39890;SDS011;25564;53.312;9.790;2022-11-20T09:17:51;22.37;;;9.73;;
39890;SDS011;25564;53.312;9.790;2022-11-20T09:20:24;16.90;;;10.23;;
39890;SDS011;25564;53.312;9.790;2022-11-20T09:22:56;16.73;;;9.53;;
39890;SDS011;25564;53.312;9.790;2022-11-20T09:25:28;20.73;;;11.07;;
39890;SDS011;25564;53.312;9.790;2022-11-20T09:27:59;19.10;;;10.97;;
39890;SDS011;25564;53.312;9.790;2022-11-20T09:30:31;20.80;;;11.37;;
39890;SDS011;25564;53.312;9.790;2022-11-20T09:33:03;19.43;;;11.40;;
39890;SDS011;25564;53.312;9.790;2022-11-20T09:35:35;19.77;;;10.73;;
39890;SDS011;25564;53.312;9.790;2022-11-20T09:38:07;17.87;;;10.43;;
39890;SDS011;25564;53.312;9.790;2022-11-20T09:40:39;18.07;;;11.70;;
39890;SDS011;25564;53.312;9.790;2022-11-20T09:43:18;16.37;;;9.80;;
39890;SDS011;25564;53.312;9.790;2022-11-20T09:46:40;20.87;;;10.70;;
39890;SDS011;25564;53.312;9.790;2022-11-20T09:51:51;15.27;;;9.53;;
39890;SDS011;25564;53.312;9.790;2022-11-20T09:54:31;18.53;;;9.80;;
39890;SDS011;25564;53.312;9.790;2022-11-20T09:57:14;14.30;;;8.73;;
39890;SDS011;25564;53.312;9.790;2022-11-20T09:59:50;20.43;;;10.20;;
39890;SDS011;25564;53.312;9.790;2022-11-20T10:02:30;16.92;;;9.27;;
39890;SDS011;25564;53.312;9.790;2022-11-20T10:16:54;11.37;;;7.10;;
39890;SDS011;25564;53.312;9.790;2022-11-20T10:19:56;9.87;;;5.90;;
39890;SDS011;25564;53.312;9.790;2022-11-20T10:28:15;10.07;;;6.17;;
39890;SDS011;25564;53.312;9.790;2022-11-20T10:30:55;11.03;;;6.73;;
39890;SDS011;25564;53.312;9.790;2022-11-20T10:33:35;11.93;;;6.43;;
39890;SDS011;25564;53.312;9.790;2022-11-20T10:36:38;10.30;;;6.37;;
39890;SDS011;25564;53.312;9.790;2022-11-20T10:41:53;10.80;;;6.43;;
39890;SDS011;25564;53.312;9.790;2022-11-20T10:44:28;14.47;;;6.53;;
39890;SDS011;25564;53.312;9.790;2022-11-20T10:47:25;12.53;;;6.70;;
39890;SDS011;25564;53.312;9.790;2022-11-20T10:50:01;10.60;;;6.77;;
39890;SDS011;25564;53.312;9.790;2022-11-20T10:52:43;9.13;;;6.17;;
39890;SDS011;25564;53.312;9.790;2022-11-20T10:55:32;12.93;;;7.33;;
39890;SDS011;25564;53.312;9.790;2022-11-20T10:58:27;12.07;;;7.50;;
39890;SDS011;25564;53.312;9.790;2022-11-20T11:01:15;12.87;;;7.27;;
39890;SDS011;25564;53.312;9.790;2022-11-20T11:03:48;10.77;;;6.43;;
39890;SDS011;25564;53.312;9.790;2022-11-20T11:06:39;8.83;;;5.83;;
39890;SDS011;25564;53.312;9.790;2022-11-20T11:09:21;10.07;;;6.10;;
39890;SDS011;25564;53.312;9.790;2022-11-20T11:12:06;11.27;;;6.07;;
39890;SDS011;25564;53.312;9.790;2022-11-20T11:14:43;9.48;;;5.97;;
39890;SDS011;25564;53.312;9.790;2022-11-20T11:20:05;9.03;;;5.20;;
39890;SDS011;25564;53.312;9.790;2022-11-20T11:22:49;10.73;;;5.33;;
39890;SDS011;25564;53.312;9.790;2022-11-20T11:25:26;10.07;;;5.37;;
39890;SDS011;25564;53.312;9.790;2022-11-20T11:28:19;9.83;;;5.10;;
39890;SDS011;25564;53.312;9.790;2022-11-20T11:30:52;9.70;;;5.13;;
39890;SDS011;25564;53.312;9.790;2022-11-20T11:33:25;10.83;;;5.57;;
39890;SDS011;25564;53.312;9.790;2022-11-20T11:35:59;10.63;;;5.53;;
39890;SDS011;25564;53.312;9.790;2022-11-20T11:38:34;9.10;;;5.03;;
39890;SDS011;25564;53.312;9.790;2022-11-20T11:41:20;11.82;;;5.95;;
39890;SDS011;25564;53.312;9.790;2022-11-20T11:43:55;8.48;;;4.72;;
39890;SDS011;25564;53.312;9.790;2022-11-20T11:46:53;8.77;;;4.60;;
39890;SDS011;25564;53.312;9.790;2022-11-20T11:49:27;9.40;;;5.47;;
39890;SDS011;25564;53.312;9.790;2022-11-20T11:52:07;10.37;;;6.53;;
39890;SDS011;25564;53.312;9.790;2022-11-20T12:00:13;7.30;;;4.70;;
39890;SDS011;25564;53.312;9.790;2022-11-20T12:11:02;8.77;;;5.17;;
39890;SDS011;25564;53.312;9.790;2022-11-20T12:16:07;7.53;;;4.27;;
39890;SDS011;25564;53.312;9.790;2022-11-20T12:18:43;6.40;;;4.27;;
39890;SDS011;25564;53.312;9.790;2022-11-20T12:21:20;7.77;;;4.40;;
39890;SDS011;25564;53.312;9.790;2022-11-20T12:24:06;11.40;;;4.87;;
39890;SDS011;25564;53.312;9.790;2022-11-20T12:30:07;8.23;;;4.53;;
39890;SDS011;25564;53.312;9.790;2022-11-20T12:35:53;5.57;;;3.60;;
39890;SDS011;25564;53.312;9.790;2022-11-20T12:38:36;5.47;;;3.27;;
39890;SDS011;25564;53.312;9.790;2022-11-20T12:41:35;10.07;;;4.93;;
39890;SDS011;25564;53.312;9.790;2022-11-20T12:47:56;7.37;;;3.57;;
39890;SDS011;25564;53.312;9.790;2022-11-20T12:50:42;4.53;;;2.73;;
39890;SDS011;25564;53.312;9.790;2022-11-20T12:54:00;5.57;;;3.13;;
39890;SDS011;25564;53.312;9.790;2022-11-20T13:08:20;8.27;;;2.92;;
39890;SDS011;25564;53.312;9.790;2022-11-20T13:11:08;3.77;;;2.70;;
39890;SDS011;25564;53.312;9.790;2022-11-20T13:13:55;4.40;;;2.60;;
39890;SDS011;25564;53.312;9.790;2022-11-20T13:16:45;4.10;;;2.60;;
39890;SDS011;25564;53.312;9.790;2022-11-20T13:19:36;4.40;;;2.97;;
39890;SDS011;25564;53.312;9.790;2022-11-20T13:22:08;5.00;;;3.07;;
39890;SDS011;25564;53.312;9.790;2022-11-20T13:24:40;3.53;;;2.20;;
39890;SDS011;25564;53.312;9.790;2022-11-20T13:27:22;4.03;;;2.60;;
39890;SDS011;25564;53.312;9.790;2022-11-20T13:32:52;4.73;;;2.50;;
39890;SDS011;25564;53.312;9.790;2022-11-20T13:35:27;4.67;;;2.97;;
39890;SDS011;25564;53.312;9.790;2022-11-20T13:38:01;4.03;;;2.90;;
39890;SDS011;25564;53.312;9.790;2022-11-20T13:40:36;3.90;;;2.80;;
39890;SDS011;25564;53.312;9.790;2022-11-20T13:43:19;4.23;;;2.77;;
39890;SDS011;25564;53.312;9.790;2022-11-20T13:45:58;6.53;;;2.73;;
39890;SDS011;25564;53.312;9.790;2022-11-20T13:48:39;6.87;;;2.90;;
39890;SDS011;25564;53.312;9.790;2022-11-20T13:54:04;4.83;;;3.03;;
39890;SDS011;25564;53.312;9.790;2022-11-20T14:00:15;4.28;;;2.63;;
39890;SDS011;25564;53.312;9.790;2022-11-20T14:05:38;4.50;;;2.83;;
39890;SDS011;25564;53.312;9.790;2022-11-20T14:08:23;3.93;;;2.60;;
39890;SDS011;25564;53.312;9.790;2022-11-20T14:11:03;4.03;;;2.57;;
39890;SDS011;25564;53.312;9.790;2022-11-20T14:13:56;3.97;;;2.38;;
39890;SDS011;25564;53.312;9.790;2022-11-20T14:16:36;3.63;;;2.20;;
39890;SDS011;25564;53.312;9.790;2022-11-20T14:19:41;3.30;;;1.90;;
39890;SDS011;25564;53.312;9.790;2022-11-20T14:22:10;5.77;;;3.37;;
39890;SDS011;25564;53.312;9.790;2022-11-20T14:25:18;3.23;;;2.20;;
39890;SDS011;25564;53.312;9.790;2022-11-20T14:27:55;3.77;;;2.13;;
39890;SDS011;25564;53.312;9.790;2022-11-20T14:30:39;3.97;;;2.40;;
39890;SDS011;25564;53.312;9.790;2022-11-20T14:33:15;3.63;;;2.10;;
39890;SDS011;25564;53.312;9.790;2022-11-20T14:35:48;4.27;;;2.40;;
39890;SDS011;25564;53.312;9.790;2022-11-20T14:38:23;5.03;;;2.33;;
39890;SDS011;25564;53.312;9.790;2022-11-20T14:41:07;3.20;;;2.03;;
39890;SDS011;25564;53.312;9.790;2022-11-20T14:43:40;3.37;;;1.67;;
39890;SDS011;25564;53.312;9.790;2022-11-20T14:46:17;4.43;;;2.57;;
39890;SDS011;25564;53.312;9.790;2022-11-20T14:48:57;3.63;;;2.50;;
39890;SDS011;25564;53.312;9.790;2022-11-20T14:51:33;4.67;;;3.50;;
39890;SDS011;25564;53.312;9.790;2022-11-20T14:54:17;4.28;;;2.80;;
39890;SDS011;25564;53.312;9.790;2022-11-20T14:57:02;5.03;;;3.03;;
39890;SDS011;25564;53.312;9.790;2022-11-20T14:59:34;5.67;;;3.40;;
39890;SDS011;25564;53.312;9.790;2022-11-20T15:02:08;6.13;;;3.70;;
39890;SDS011;25564;53.312;9.790;2022-11-20T15:04:49;12.60;;;6.63;;
39890;SDS011;25564;53.312;9.790;2022-11-20T15:07:23;16.30;;;5.90;;
39890;SDS011;25564;53.312;9.790;2022-11-20T15:10:06;6.80;;;3.47;;
39890;SDS011;25564;53.312;9.790;2022-11-20T15:12:45;25.13;;;6.57;;
39890;SDS011;25564;53.312;9.790;2022-11-20T15:15:21;10.27;;;4.97;;
39890;SDS011;25564;53.312;9.790;2022-11-20T15:17:56;6.83;;;3.17;;
39890;SDS011;25564;53.312;9.790;2022-11-20T15:20:30;5.73;;;3.40;;
39890;SDS011;25564;53.312;9.790;2022-11-20T15:23:08;7.20;;;4.43;;
39890;SDS011;25564;53.312;9.790;2022-11-20T15:25:46;6.87;;;4.30;;
39890;SDS011;25564;53.312;9.790;2022-11-20T15:28:23;7.73;;;3.57;;
39890;SDS011;25564;53.312;9.790;2022-11-20T15:30:56;5.63;;;3.90;;
39890;SDS011;25564;53.312;9.790;2022-11-20T15:33:28;7.90;;;4.83;;
39890;SDS011;25564;53.312;9.790;2022-11-20T15:36:00;8.33;;;4.57;;
39890;SDS011;25564;53.312;9.790;2022-11-20T15:38:31;10.77;;;5.30;;
39890;SDS011;25564;53.312;9.790;2022-11-20T15:41:02;6.50;;;4.70;;
39890;SDS011;25564;53.312;9.790;2022-11-20T15:43:34;6.23;;;4.03;;
39890;SDS011;25564;53.312;9.790;2022-11-20T15:46:06;7.37;;;4.40;;
39890;SDS011;25564;53.312;9.790;2022-11-20T15:48:43;8.57;;;5.40;;
39890;SDS011;25564;53.312;9.790;2022-11-20T15:51:25;9.65;;;4.88;;
39890;SDS011;25564;53.312;9.790;2022-11-20T15:53:58;9.97;;;4.70;;
39890;SDS011;25564;53.312;9.790;2022-11-20T15:56:30;10.50;;;6.13;;
39890;SDS011;25564;53.312;9.790;2022-11-20T15:59:04;9.80;;;5.27;;
39890;SDS011;25564;53.312;9.790;2022-11-20T16:01:35;9.93;;;5.93;;
39890;SDS011;25564;53.312;9.790;2022-11-20T16:04:13;10.00;;;5.90;;
39890;SDS011;25564;53.312;9.790;2022-11-20T16:06:47;12.37;;;6.20;;
39890;SDS011;25564;53.312;9.790;2022-11-20T16:09:18;14.90;;;7.60;;
39890;SDS011;25564;53.312;9.790;2022-11-20T16:11:50;11.87;;;7.40;;
39890;SDS011;25564;53.312;9.790;2022-11-20T16:14:21;13.40;;;7.30;;
39890;SDS011;25564;53.312;9.790;2022-11-20T16:17:11;11.90;;;7.17;;
39890;SDS011;25564;53.312;9.790;2022-11-20T16:19:43;13.00;;;7.97;;
39890;SDS011;25564;53.312;9.790;2022-11-20T16:22:14;17.67;;;8.27;;
39890;SDS011;25564;53.312;9.790;2022-11-20T16:24:45;15.17;;;8.13;;
39890;SDS011;25564;53.312;9.790;2022-11-20T16:27:17;13.80;;;7.63;;
39890;SDS011;25564;53.312;9.790;2022-11-20T16:29:48;14.00;;;8.73;;
39890;SDS011;25564;53.312;9.790;2022-11-20T16:32:20;16.87;;;8.90;;
39890;SDS011;25564;53.312;9.790;2022-11-20T16:34:51;17.63;;;9.50;;
39890;SDS011;25564;53.312;9.790;2022-11-20T16:37:22;17.73;;;9.33;;
39890;SDS011;25564;53.312;9.790;2022-11-20T16:39:53;15.93;;;8.90;;
39890;SDS011;25564;53.312;9.790;2022-11-20T16:42:27;17.20;;;9.53;;
39890;SDS011;25564;53.312;9.790;2022-11-20T16:44:58;28.60;;;14.13;;
39890;SDS011;25564;53.312;9.790;2022-11-20T16:47:35;30.87;;;14.67;;